Time;durP1;ratioP1;P1;durP2;ratioP2;P2;SDS_P1;SDS_P2;PMS_P1;PMS_P2;Temp;Humidity;BMP_temperature;BMP_pressure;BME280_temperature;BME280_humidity;BME280_pressure;Samples;Min_cycle;Max_cycle;Signal;HPM_P1;HPM_P2
2023/09/05 00:02:18;;;;;;;4.50;4.10;;;;;;;18.08;61.79;98459.47;5000811;28;20456;-75
2023/09/05 00:04:47;;;;;;;4.40;4.10;;;;;;;17.89;62.27;98461.50;5001951;28;20556;-75
2023/09/05 00:07:13;;;;;;;4.80;4.40;;;;;;;17.84;62.05;98460.56;5005554;28;20465;-75
2023/09/05 00:09:40;;;;;;;4.50;4.20;;;;;;;17.79;62.62;98450.31;5003879;28;20475;-75
2023/09/05 00:12:08;;;;;;;4.33;3.93;;;;;;;17.88;62.29;98448.88;5002099;28;20483;-76
2023/09/05 00:14:36;;;;;;;4.30;4.00;;;;;;;17.82;61.93;98447.09;5002663;28;21024;-75
2023/09/05 00:17:03;;;;;;;4.60;4.20;;;;;;;17.88;61.43;98442.56;5000699;28;20540;-75
2023/09/05 00:19:30;;;;;;;4.30;4.00;;;;;;;17.62;60.97;98432.88;4999156;28;20465;-76
2023/09/05 00:21:57;;;;;;;3.83;3.57;;;;;;;17.67;60.80;98435.78;4999641;28;20466;-75
2023/09/05 00:24:27;;;;;;;4.30;4.00;;;;;;;17.70;60.23;98444.34;5002082;28;21157;-75
2023/09/05 00:26:55;;;;;;;3.67;3.37;;;;;;;17.68;59.49;98443.75;5002518;28;20457;-75
2023/09/05 00:29:21;;;;;;;3.40;3.20;;;;;;;17.70;60.21;98447.09;5000987;28;20864;-75
2023/09/05 00:31:50;;;;;;;4.20;3.80;;;;;;;17.63;58.95;98442.78;4999756;28;20521;-75
2023/09/05 00:34:17;;;;;;;3.70;3.40;;;;;;;17.59;58.40;98453.34;4999577;28;21008;-75
2023/09/05 00:36:43;;;;;;;4.20;3.80;;;;;;;17.70;58.16;98443.53;4999616;28;20464;-75
2023/09/05 00:39:10;;;;;;;3.60;3.30;;;;;;;17.70;57.44;98441.63;5002317;28;20458;-75
2023/09/05 00:41:37;;;;;;;3.40;3.20;;;;;;;17.76;56.79;98446.16;5000099;28;20870;-75
2023/09/05 00:44:05;;;;;;;5.00;3.23;;;;;;;17.87;56.56;98446.41;5003199;28;20906;-75
2023/09/05 00:46:32;;;;;;;3.40;3.13;;;;;;;17.93;55.99;98445.41;5001175;28;20957;-75
2023/09/05 00:49:02;;;;;;;3.10;2.90;;;;;;;17.82;55.73;98438.88;5002340;28;20457;-75
2023/09/05 00:51:30;;;;;;;4.60;3.17;;;;;;;17.88;55.68;98443.38;4996189;28;20475;-75
2023/09/05 00:53:57;;;;;;;3.00;2.80;;;;;;;17.88;55.91;98445.28;5001245;28;20525;-76
2023/09/05 00:56:24;;;;;;;3.00;2.80;;;;;;;17.90;55.68;98443.16;5000634;28;20454;-75
2023/09/05 00:58:51;;;;;;;3.93;3.53;;;;;;;17.90;55.69;98440.41;5000852;28;21479;-75
2023/09/05 01:01:18;;;;;;;2.97;2.77;;;;;;;17.78;55.85;98443.19;4998402;28;20576;-75
2023/09/05 01:03:45;;;;;;;3.40;3.20;;;;;;;17.72;55.61;98442.22;5007046;28;20617;-76
2023/09/05 01:06:22;;;;;;;3.00;2.80;;;;;;;17.83;55.62;98439.72;5005982;28;20817;-75
2023/09/05 01:08:57;;;;;;;3.40;3.20;;;;;;;17.78;55.84;98441.28;5007778;28;20465;-75
2023/09/05 01:11:25;;;;;;;3.10;2.80;;;;;;;17.76;55.78;98439.84;5003474;28;20452;-75
2023/09/05 01:13:52;;;;;;;3.43;3.13;;;;;;;17.66;56.46;98443.16;5008038;28;20616;-75
2023/09/05 01:16:18;;;;;;;3.37;3.07;;;;;;;17.61;56.81;98445.75;5006323;28;20543;-76
2023/09/05 01:18:46;;;;;;;3.20;2.93;;;;;;;17.61;56.55;98447.66;5002218;28;20457;-75
2023/09/05 01:21:22;;;;;;;3.40;3.20;;;;;;;17.64;56.26;98449.91;5004660;28;20453;-75
2023/09/05 01:23:55;;;;;;;3.20;3.00;;;;;;;17.67;56.25;98454.94;4999867;28;20563;-75
2023/09/05 01:26:23;;;;;;;3.83;3.20;;;;;;;17.67;56.10;98460.44;5001807;28;20497;-75
2023/09/05 01:28:52;;;;;;;3.70;3.03;;;;;;;17.70;56.08;98451.75;5006780;28;21256;-76
2023/09/05 01:31:18;;;;;;;3.47;3.17;;;;;;;17.63;56.32;98454.56;5007262;28;20925;-75
2023/09/05 01:33:45;;;;;;;3.50;3.20;;;;;;;17.51;56.84;98455.63;5006637;28;21071;-75
2023/09/05 01:36:12;;;;;;;3.20;2.90;;;;;;;17.56;56.67;98455.72;5006215;28;20894;-74
2023/09/05 01:38:39;;;;;;;3.43;3.13;;;;;;;17.50;56.96;98453.97;5006074;28;20489;-75
2023/09/05 01:41:06;;;;;;;3.03;2.83;;;;;;;17.44;57.05;98448.38;5005883;28;20568;-75
2023/09/05 01:43:34;;;;;;;3.50;3.20;;;;;;;17.30;57.61;98446.91;5003497;28;20485;-74
2023/09/05 01:46:01;;;;;;;3.23;3.03;;;;;;;17.35;57.44;98440.72;5004576;28;21155;-75
2023/09/05 01:48:28;;;;;;;3.13;2.93;;;;;;;17.30;57.83;98435.13;5001287;28;21132;-75
2023/09/05 01:50:55;;;;;;;3.43;3.00;;;;;;;17.29;57.80;98434.28;5002250;28;20492;-75
2023/09/05 01:53:23;;;;;;;3.37;3.07;;;;;;;17.28;57.94;98440.00;5002957;28;21023;-75
2023/09/05 01:55:51;;;;;;;3.50;3.13;;;;;;;17.33;57.38;98432.75;4998377;28;20822;-75
2023/09/05 01:58:17;;;;;;;3.33;3.03;;;;;;;17.30;57.63;98433.22;5007977;28;20464;-75
2023/09/05 02:00:45;;;;;;;3.40;3.10;;;;;;;17.24;58.10;98427.84;5011210;28;20457;-75
2023/09/05 02:03:12;;;;;;;3.87;3.57;;;;;;;17.21;58.05;98428.34;5008157;28;20568;-75
2023/09/05 02:05:39;;;;;;;3.77;3.47;;;;;;;17.22;58.13;98425.34;5007268;28;20552;-76
2023/09/05 02:08:06;;;;;;;3.00;2.80;;;;;;;17.27;57.76;98425.47;5009534;28;20678;-75
2023/09/05 02:10:33;;;;;;;2.80;2.60;;;;;;;17.24;57.64;98423.22;5005491;28;20559;-75
2023/09/05 02:13:00;;;;;;;3.00;2.80;;;;;;;17.31;57.51;98434.88;5004125;28;21365;-75
2023/09/05 02:15:26;;;;;;;3.40;3.10;;;;;;;17.14;57.86;98422.97;5006452;28;20999;-75
2023/09/05 02:17:55;;;;;;;3.80;3.50;;;;;;;17.29;57.50;98425.25;5008520;28;20460;-76
2023/09/05 02:20:23;;;;;;;3.10;2.80;;;;;;;17.23;57.44;98413.34;5007983;28;20492;-75
2023/09/05 02:22:51;;;;;;;3.10;2.90;;;;;;;17.34;57.22;98422.63;5006450;28;20476;-75
2023/09/05 02:25:17;;;;;;;2.90;2.70;;;;;;;17.34;57.06;98423.47;5006625;28;20580;-75
2023/09/05 02:27:44;;;;;;;3.07;2.87;;;;;;;17.35;57.30;98419.66;5006499;28;20977;-75
2023/09/05 02:30:12;;;;;;;2.70;2.50;;;;;;;17.40;56.99;98417.06;5003369;28;20461;-75
2023/09/05 02:32:39;;;;;;;3.03;2.83;;;;;;;17.46;56.94;98418.84;5004792;28;20449;-75
2023/09/05 02:35:08;;;;;;;3.23;2.73;;;;;;;17.35;57.30;98427.88;5007272;28;20477;-75
2023/09/05 02:37:35;;;;;;;3.23;2.93;;;;;;;17.43;57.06;98427.53;5005462;28;20555;-76
2023/09/05 02:40:03;;;;;;;4.90;2.93;;;;;;;17.46;57.19;98427.06;5003535;28;20464;-75
2023/09/05 02:42:30;;;;;;;3.30;3.03;;;;;;;17.35;57.30;98425.16;5005829;28;20521;-75
2023/09/05 02:44:57;;;;;;;3.03;2.70;;;;;;;17.39;57.50;98426.34;5004024;28;20472;-75
2023/09/05 02:47:24;;;;;;;3.40;3.10;;;;;;;17.30;57.73;98430.47;5006329;28;20476;-75
2023/09/05 02:49:51;;;;;;;3.33;2.90;;;;;;;17.23;58.35;98442.59;5004996;28;20452;-74
2023/09/05 02:52:21;;;;;;;3.20;3.00;;;;;;;17.30;58.12;98438.69;5006749;28;20457;-75
2023/09/05 02:54:48;;;;;;;3.47;2.90;;;;;;;17.21;58.21;98445.59;5004867;28;20576;-76
2023/09/05 02:57:15;;;;;;;4.00;3.00;;;;;;;17.26;58.09;98440.22;5007636;28;20465;-75
2023/09/05 02:59:41;;;;;;;3.53;3.33;;;;;;;17.18;58.18;98440.59;5006396;28;20457;-75
2023/09/05 03:02:08;;;;;;;3.67;3.37;;;;;;;17.25;58.03;98444.03;5004254;28;20461;-75
2023/09/05 03:04:35;;;;;;;3.13;2.90;;;;;;;17.20;58.09;98449.41;5004197;28;20485;-76
2023/09/05 03:07:02;;;;;;;3.23;2.93;;;;;;;17.15;58.54;98445.69;5008697;28;20485;-75
2023/09/05 03:09:30;;;;;;;3.73;3.43;;;;;;;17.14;58.72;98455.81;5010488;28;20460;-75
2023/09/05 03:11:57;;;;;;;2.87;2.67;;;;;;;17.07;59.05;98452.31;5003742;28;20592;-76
2023/09/05 03:14:24;;;;;;;3.37;3.07;;;;;;;17.00;59.17;98451.59;5006517;28;20492;-75
2023/09/05 03:16:51;;;;;;;3.10;2.90;;;;;;;17.06;58.52;98453.41;5005776;28;20477;-75
2023/09/05 03:19:21;;;;;;;2.87;2.63;;;;;;;16.94;58.39;98455.25;5007988;28;20516;-76
2023/09/05 03:21:48;;;;;;;2.97;2.77;;;;;;;17.09;58.10;98439.25;5010338;28;20457;-76
2023/09/05 03:24:17;;;;;;;4.30;3.30;;;;;;;17.07;58.35;98444.13;5008755;28;20499;-75
2023/09/05 03:26:46;;;;;;;3.50;3.20;;;;;;;16.83;59.01;98443.22;5009585;28;20511;-76
2023/09/05 03:29:13;;;;;;;3.30;3.10;;;;;;;16.81;59.11;98444.53;5011017;28;20536;-76
2023/09/05 03:31:40;;;;;;;2.73;2.53;;;;;;;16.90;58.68;98443.09;5002658;28;20498;-75
2023/09/05 03:34:07;;;;;;;6.03;2.93;;;;;;;16.90;58.47;98443.94;5009819;28;20539;-75
2023/09/05 03:36:34;;;;;;;3.07;2.80;;;;;;;16.98;58.34;98445.50;5010969;28;20524;-75
2023/09/05 03:39:00;;;;;;;3.47;3.17;;;;;;;16.99;58.16;98438.97;5008580;28;20453;-75
2023/09/05 03:41:28;;;;;;;3.40;2.77;;;;;;;16.98;58.10;98438.16;5004012;28;20453;-76
2023/09/05 03:43:56;;;;;;;3.40;3.10;;;;;;;16.96;58.30;98431.25;5009025;28;20516;-76
2023/09/05 03:46:23;;;;;;;3.20;2.90;;;;;;;17.00;58.18;98437.91;5009007;28;20459;-76
2023/09/05 03:48:51;;;;;;;4.80;2.80;;;;;;;16.97;58.59;98433.75;5009141;28;20546;-76
2023/09/05 03:51:17;;;;;;;3.20;2.73;;;;;;;16.98;58.58;98429.94;5007345;28;20833;-76
2023/09/05 03:53:44;;;;;;;3.20;2.70;;;;;;;17.01;58.50;98434.13;5008396;28;20497;-76
2023/09/05 03:56:11;;;;;;;3.00;2.73;;;;;;;16.91;58.87;98433.84;5003630;28;20496;-76
2023/09/05 03:58:38;;;;;;;3.43;3.13;;;;;;;16.95;58.84;98424.94;5007103;28;20491;-75
2023/09/05 04:01:13;;;;;;;3.63;3.03;;;;;;;17.01;58.60;98450.53;5007366;28;20464;-76
2023/09/05 04:03:39;;;;;;;2.70;2.50;;;;;;;16.98;58.51;98429.09;5008049;28;20477;-76
2023/09/05 04:06:06;;;;;;;3.30;2.87;;;;;;;17.02;58.55;98422.09;5009068;28;20548;-76
2023/09/05 04:08:33;;;;;;;2.93;2.73;;;;;;;16.73;59.38;98421.91;5006629;28;20453;-75
2023/09/05 04:11:01;;;;;;;2.90;2.70;;;;;;;16.78;59.53;98419.31;5005793;28;20531;-76
2023/09/05 04:13:28;;;;;;;3.40;3.10;;;;;;;16.71;59.66;98418.56;5006467;28;20499;-76
2023/09/05 04:15:55;;;;;;;3.10;2.87;;;;;;;16.76;59.86;98421.44;5006621;28;20457;-76
2023/09/05 04:18:23;;;;;;;3.47;2.83;;;;;;;16.67;60.02;98422.81;5007914;28;20527;-75
2023/09/05 04:20:56;;;;;;;3.10;2.90;;;;;;;16.72;60.11;98422.97;5007881;28;20464;-76
2023/09/05 04:23:24;;;;;;;2.83;2.63;;;;;;;16.54;60.68;98422.16;5009436;28;20470;-76
2023/09/05 04:25:56;;;;;;;2.90;2.70;;;;;;;16.54;60.75;98417.53;5009005;28;20484;-75
2023/09/05 04:28:22;;;;;;;2.90;2.60;;;;;;;16.42;61.32;98425.66;5008152;28;20453;-76
2023/09/05 04:30:49;;;;;;;3.30;3.00;;;;;;;16.38;61.75;98420.88;5005787;28;20544;-75
2023/09/05 04:33:16;;;;;;;3.70;2.93;;;;;;;16.33;61.73;98426.19;5004829;28;20911;-75
2023/09/05 04:35:44;;;;;;;2.67;2.47;;;;;;;16.21;61.85;98425.31;5006684;28;20568;-76
2023/09/05 04:38:11;;;;;;;3.80;3.50;;;;;;;16.18;62.26;98423.03;5008033;28;20552;-75
2023/09/05 04:40:38;;;;;;;3.43;3.13;;;;;;;16.15;62.22;98434.41;5007417;28;20496;-75
2023/09/05 04:43:05;;;;;;;3.00;2.70;;;;;;;16.18;62.12;98433.97;5008086;28;20548;-75
2023/09/05 04:45:31;;;;;;;2.87;2.57;;;;;;;16.18;62.26;98432.06;5003375;28;20963;-75
2023/09/05 04:47:58;;;;;;;3.73;2.93;;;;;;;16.16;62.41;98430.63;5006143;28;20465;-75
2023/09/05 04:50:25;;;;;;;3.50;3.00;;;;;;;16.03;62.67;98426.97;5006922;28;21559;-75
2023/09/05 04:52:53;;;;;;;3.57;3.27;;;;;;;16.28;62.25;98428.78;5008311;28;20548;-75
2023/09/05 04:55:20;;;;;;;3.20;2.90;;;;;;;16.23;62.24;98425.94;5006402;28;20561;-77
2023/09/05 04:57:47;;;;;;;3.07;2.77;;;;;;;16.15;62.55;98428.97;5008015;28;20460;-75
2023/09/05 05:00:18;;;;;;;3.53;3.10;;;;;;;16.33;62.11;98431.66;5008618;28;20535;-75
2023/09/05 05:02:45;;;;;;;3.37;3.03;;;;;;;16.30;62.21;98430.22;5003501;28;21059;-76
2023/09/05 05:05:12;;;;;;;3.30;3.00;;;;;;;16.36;61.87;98432.03;5005296;28;20562;-75
2023/09/05 05:07:39;;;;;;;3.70;3.00;;;;;;;16.30;62.18;98432.13;5001892;28;20484;-75
2023/09/05 05:10:08;;;;;;;2.60;2.40;;;;;;;16.37;62.14;98435.59;5003905;28;20888;-75
2023/09/05 05:12:35;;;;;;;3.37;3.07;;;;;;;16.44;62.03;98442.66;5007021;28;20524;-76
2023/09/05 05:15:01;;;;;;;3.70;3.17;;;;;;;16.43;62.18;98440.16;5005501;28;20489;-76
2023/09/05 05:17:28;;;;;;;3.20;2.90;;;;;;;16.43;62.24;98441.00;5006334;28;21113;-75
2023/09/05 05:19:56;;;;;;;3.97;3.57;;;;;;;16.55;62.08;98440.22;5007769;28;20492;-75
2023/09/05 05:22:22;;;;;;;3.23;3.03;;;;;;;16.59;62.10;98444.13;5005730;28;20453;-74
2023/09/05 05:24:50;;;;;;;3.30;3.00;;;;;;;16.56;62.05;98445.47;5002717;28;20564;-74
2023/09/05 05:27:18;;;;;;;3.40;3.10;;;;;;;16.66;62.18;98448.50;5004686;28;20456;-74
2023/09/05 05:29:45;;;;;;;4.33;2.83;;;;;;;16.95;61.38;98451.44;5006105;28;20473;-74
2023/09/05 05:32:12;;;;;;;3.00;2.70;;;;;;;16.83;61.88;98445.13;5006920;28;21029;-74
2023/09/05 05:34:39;;;;;;;3.50;3.20;;;;;;;16.91;61.90;98444.78;5006007;28;20936;-75
2023/09/05 05:37:05;;;;;;;3.20;2.90;;;;;;;16.95;61.86;98449.53;5002990;28;20839;-76
2023/09/05 05:39:32;;;;;;;3.20;2.90;;;;;;;17.05;61.76;98444.34;4998479;28;20826;-74
2023/09/05 05:41:59;;;;;;;4.10;3.20;;;;;;;17.08;61.63;98443.06;4999529;28;20964;-69
2023/09/05 05:44:27;;;;;;;4.67;3.10;;;;;;;17.10;61.70;98438.19;5005536;28;20469;-70
2023/09/05 05:46:57;;;;;;;3.40;3.10;;;;;;;17.19;61.45;98447.72;5002113;28;20467;-70
2023/09/05 05:49:28;;;;;;;3.70;3.13;;;;;;;17.28;61.42;98445.47;4997838;28;20457;-71
2023/09/05 05:51:56;;;;;;;3.10;2.80;;;;;;;17.30;61.18;98444.16;4991579;28;20477;-71
2023/09/05 05:54:23;;;;;;;2.80;2.60;;;;;;;17.50;60.82;98443.84;4991349;28;20519;-71
2023/09/05 05:56:50;;;;;;;3.70;3.10;;;;;;;17.51;60.88;98452.91;4998400;28;20968;-72
2023/09/05 05:59:17;;;;;;;3.53;3.23;;;;;;;17.67;60.51;98452.22;4997799;28;20539;-83
2023/09/05 06:01:46;;;;;;;4.20;3.17;;;;;;;17.72;60.29;98453.16;4998303;28;20871;-82
2023/09/05 06:04:15;;;;;;;4.60;3.20;;;;;;;17.77;60.53;98453.28;5006332;28;20507;-77
2023/09/05 06:06:42;;;;;;;3.47;3.17;;;;;;;18.01;59.61;98448.63;4995594;28;21042;-76
2023/09/05 06:09:09;;;;;;;5.73;3.20;;;;;;;18.32;59.06;98450.13;4995394;28;20460;-77
2023/09/05 06:11:36;;;;;;;3.20;2.93;;;;;;;18.87;57.41;98443.28;5005275;28;20457;-78
2023/09/05 06:14:03;;;;;;;3.10;2.80;;;;;;;19.41;55.93;98450.03;5006230;28;20469;-76
2023/09/05 06:16:30;;;;;;;3.03;2.83;;;;;;;20.21;54.34;98451.53;5005671;28;20457;-75
2023/09/05 06:18:58;;;;;;;2.97;2.67;;;;;;;20.82;51.74;98447.66;5009280;28;20601;-73
2023/09/05 06:21:25;;;;;;;3.60;3.30;;;;;;;21.26;51.41;98453.94;5005431;28;20516;-81
2023/09/05 06:23:51;;;;;;;3.00;2.80;;;;;;;21.18;50.80;98448.84;5007886;28;20486;-78
2023/09/05 06:26:19;;;;;;;3.10;2.90;;;;;;;21.46;50.69;98456.03;5010326;28;20451;-79
2023/09/05 06:28:47;;;;;;;4.60;3.93;;;;;;;21.70;50.10;98456.53;5005615;28;20497;-78
2023/09/05 06:31:14;;;;;;;3.70;3.33;;;;;;;22.18;48.39;98462.94;5003259;28;20450;-81
2023/09/05 06:33:41;;;;;;;3.00;2.80;;;;;;;22.01;48.52;98457.59;5005196;28;20486;-75
2023/09/05 06:36:11;;;;;;;3.30;3.00;;;;;;;22.14;48.51;98454.34;5005762;28;20512;-75
2023/09/05 06:38:39;;;;;;;3.30;2.87;;;;;;;22.76;47.80;98451.59;4999956;28;20488;-79
2023/09/05 06:41:06;;;;;;;5.43;2.83;;;;;;;22.89;47.41;98455.00;5006288;28;20460;-75
2023/09/05 06:43:33;;;;;;;4.17;3.20;;;;;;;23.24;46.24;98454.25;4997877;28;20512;-75
2023/09/05 06:46:03;;;;;;;3.63;3.33;;;;;;;23.56;45.26;98449.34;4993216;28;20813;-73
2023/09/05 06:48:30;;;;;;;2.73;2.53;;;;;;;23.78;45.33;98449.03;5000620;28;20461;-78
2023/09/05 06:50:58;;;;;;;3.40;2.50;;;;;;;24.17;44.23;98459.50;4995547;28;21137;-80
2023/09/05 06:53:26;;;;;;;2.80;2.60;;;;;;;24.09;43.41;98450.66;5004827;28;20841;-78
2023/09/05 06:55:52;;;;;;;2.60;2.40;;;;;;;24.05;43.79;98455.09;5006464;28;20535;-79
2023/09/05 06:58:22;;;;;;;2.67;2.47;;;;;;;23.73;43.85;98460.09;5008793;28;20552;-77
2023/09/05 07:00:53;;;;;;;2.40;2.20;;;;;;;23.76;43.95;98454.84;5009191;28;20472;-77
2023/09/05 07:03:20;;;;;;;2.97;2.67;;;;;;;24.13;43.79;98462.81;5008485;28;20573;-77
2023/09/05 07:05:47;;;;;;;3.77;3.03;;;;;;;23.87;44.34;98463.16;5009419;28;20464;-77
2023/09/05 07:08:13;;;;;;;3.00;2.70;;;;;;;23.97;43.91;98466.75;5004428;28;20489;-78
2023/09/05 07:10:42;;;;;;;4.20;2.70;;;;;;;23.38;43.95;98456.22;5005378;28;20884;-78
2023/09/05 07:13:08;;;;;;;3.10;2.90;;;;;;;22.89;45.79;98457.75;5001918;28;20566;-78
2023/09/05 07:15:35;;;;;;;2.93;2.73;;;;;;;22.79;46.53;98461.31;4995083;28;21071;-79
2023/09/05 07:18:02;;;;;;;2.63;2.43;;;;;;;23.05;45.60;98467.75;5004582;28;20453;-79
2023/09/05 07:20:30;;;;;;;3.10;2.83;;;;;;;23.65;44.21;98466.22;4999219;28;20959;-78
2023/09/05 07:22:56;;;;;;;3.20;2.90;;;;;;;23.46;44.43;98474.16;4992059;28;20523;-80
2023/09/05 07:25:24;;;;;;;3.10;2.80;;;;;;;23.48;44.49;98465.59;5004769;28;20460;-78
2023/09/05 07:27:52;;;;;;;3.03;2.83;;;;;;;23.78;44.42;98460.09;4995575;28;20607;-79
2023/09/05 07:30:18;;;;;;;3.20;2.90;;;;;;;24.19;43.74;98454.53;4999600;28;20458;-79
2023/09/05 07:32:45;;;;;;;3.37;3.03;;;;;;;23.90;44.50;98451.53;5004799;28;20583;-74
2023/09/05 07:35:12;;;;;;;3.00;2.70;;;;;;;23.31;45.23;98450.13;5003496;28;21435;-79
2023/09/05 07:37:39;;;;;;;3.43;3.13;;;;;;;23.23;45.72;98450.66;5008565;28;20453;-79
2023/09/05 07:40:07;;;;;;;2.83;2.63;;;;;;;23.40;45.51;98455.91;5001853;28;20817;-79
2023/09/05 07:42:33;;;;;;;2.63;2.43;;;;;;;23.42;45.10;98457.31;5006565;28;20976;-79
2023/09/05 07:45:03;;;;;;;3.00;2.80;;;;;;;23.38;45.43;98453.47;5008220;28;20509;-79
2023/09/05 07:47:30;;;;;;;2.70;2.50;;;;;;;23.05;45.94;98454.78;5004435;28;20469;-79
2023/09/05 07:49:57;;;;;;;2.70;2.50;;;;;;;23.56;45.62;98445.75;5007796;28;20461;-79
2023/09/05 07:52:24;;;;;;;3.37;2.70;;;;;;;23.37;45.97;98437.97;5007879;28;20492;-79
2023/09/05 07:54:52;;;;;;;2.90;2.70;;;;;;;23.74;44.88;98450.69;5007190;28;21004;-79
2023/09/05 07:57:19;;;;;;;3.00;2.70;;;;;;;23.88;44.37;98449.03;5008064;28;20467;-79
2023/09/05 07:59:46;;;;;;;3.10;2.20;;;;;;;24.27;43.78;98445.69;5003374;28;20459;-79
2023/09/05 08:02:14;;;;;;;4.20;2.90;;;;;;;24.29;43.07;98446.25;5007262;28;20464;-79
2023/09/05 08:04:41;;;;;;;3.80;2.60;;;;;;;24.39;42.86;98451.72;5008720;28;20984;-79
2023/09/05 08:07:07;;;;;;;3.73;2.70;;;;;;;24.52;43.55;98450.31;5007548;28;20892;-79
2023/09/05 08:09:35;;;;;;;2.80;2.30;;;;;;;24.63;42.96;98454.69;5007901;28;20472;-79
2023/09/05 08:12:02;;;;;;;2.43;2.23;;;;;;;24.76;42.04;98449.34;5007492;28;20453;-80
2023/09/05 08:14:29;;;;;;;4.87;2.70;;;;;;;24.31;42.44;98449.56;5006025;28;20958;-79
2023/09/05 08:16:56;;;;;;;3.13;2.20;;;;;;;24.52;42.59;98451.13;5008056;28;20479;-80
2023/09/05 08:19:24;;;;;;;2.73;2.53;;;;;;;24.93;42.36;98439.88;5008693;28;20539;-79
2023/09/05 08:21:51;;;;;;;2.67;2.30;;;;;;;24.72;42.18;98441.91;5009057;28;20461;-79
2023/09/05 08:24:18;;;;;;;4.10;2.53;;;;;;;24.70;41.44;98444.94;5008753;28;20566;-79
2023/09/05 08:26:44;;;;;;;2.43;2.23;;;;;;;24.54;41.52;98446.13;4998008;28;20540;-79
2023/09/05 08:29:13;;;;;;;2.40;2.20;;;;;;;24.90;42.74;98437.66;5001193;28;20457;-79
2023/09/05 08:31:41;;;;;;;3.37;2.40;;;;;;;25.17;40.90;98438.09;5009579;28;20899;-79
2023/09/05 08:34:08;;;;;;;2.97;2.70;;;;;;;25.04;41.79;98444.25;5008204;28;20488;-79
2023/09/05 08:36:36;;;;;;;2.53;2.33;;;;;;;25.45;41.21;98444.81;5006362;28;20562;-79
2023/09/05 08:39:04;;;;;;;2.50;2.27;;;;;;;25.37;41.17;98445.41;5008887;28;20457;-80
2023/09/05 08:41:32;;;;;;;4.23;2.57;;;;;;;25.40;39.68;98442.06;5002260;28;20540;-79
2023/09/05 08:43:59;;;;;;;2.20;2.10;;;;;;;25.29;40.31;98446.88;5005583;28;20480;-80
2023/09/05 08:46:27;;;;;;;2.47;2.27;;;;;;;25.81;39.35;98441.78;5007920;28;20481;-79
2023/09/05 08:48:53;;;;;;;3.57;2.60;;;;;;;25.80;39.77;98451.22;5008438;28;20991;-80
2023/09/05 08:51:21;;;;;;;2.63;2.37;;;;;;;26.11;38.44;98442.31;5006733;28;20489;-79
2023/09/05 08:53:55;;;;;;;2.00;1.90;;;;;;;25.82;38.95;98438.72;5005577;28;20485;-79
2023/09/05 08:56:23;;;;;;;2.40;2.20;;;;;;;26.04;38.90;98435.44;5005403;28;20476;-79
2023/09/05 08:58:52;;;;;;;2.20;2.00;;;;;;;26.09;39.21;98436.22;5007247;28;20651;-80
2023/09/05 09:01:19;;;;;;;2.30;2.20;;;;;;;26.10;39.23;98435.09;5005182;28;21051;-79
2023/09/05 09:03:46;;;;;;;3.10;2.60;;;;;;;26.08;39.43;98431.78;5006312;28;21056;-79
2023/09/05 09:06:13;;;;;;;2.20;2.10;;;;;;;25.68;40.24;98432.16;5007294;28;20465;-79
2023/09/05 09:08:42;;;;;;;2.27;2.07;;;;;;;25.80;39.51;98429.84;5005948;28;20464;-79
2023/09/05 09:11:11;;;;;;;2.50;2.10;;;;;;;26.02;39.30;98426.56;5005073;28;20461;-79
2023/09/05 09:13:38;;;;;;;2.23;2.03;;;;;;;26.37;38.30;98417.91;5006692;28;20489;-79
2023/09/05 09:16:05;;;;;;;2.13;2.00;;;;;;;26.97;37.71;98434.09;5003456;28;20524;-79
2023/09/05 09:18:33;;;;;;;2.47;2.27;;;;;;;27.08;36.57;98427.28;5005139;28;20457;-79
2023/09/05 09:21:03;;;;;;;2.20;2.10;;;;;;;26.75;36.79;98437.44;5007250;28;21053;-80
2023/09/05 09:23:33;;;;;;;2.40;2.00;;;;;;;26.46;38.01;98437.50;5005675;28;20488;-79
2023/09/05 09:26:00;;;;;;;2.47;2.27;;;;;;;26.34;37.73;98442.63;5007231;28;20537;-80
2023/09/05 09:28:31;;;;;;;2.10;2.00;;;;;;;26.30;38.08;98444.34;5006752;28;20460;-79
2023/09/05 09:30:59;;;;;;;2.20;2.00;;;;;;;26.75;38.01;98441.03;5005038;28;20463;-79
2023/09/05 09:33:26;;;;;;;2.07;1.90;;;;;;;26.77;37.00;98440.72;5003338;28;20603;-80
2023/09/05 09:36:04;;;;;;;3.43;2.13;;;;;;;26.04;38.08;98436.25;5006525;28;20572;-79
2023/09/05 09:38:31;;;;;;;1.80;1.70;;;;;;;27.00;37.70;98423.22;5006022;28;20457;-80
2023/09/05 09:41:00;;;;;;;2.80;2.07;;;;;;;26.95;36.72;98423.31;5006415;28;20469;-79
2023/09/05 09:43:29;;;;;;;2.50;2.30;;;;;;;27.20;36.13;98427.66;5005599;28;20672;-79
2023/09/05 09:45:57;;;;;;;5.67;2.90;;;;;;;27.19;35.79;98423.22;5005744;28;20890;-79
2023/09/05 09:48:27;;;;;;;1.93;1.80;;;;;;;27.58;35.09;98419.28;5006727;28;20531;-79
2023/09/05 09:50:55;;;;;;;2.10;1.90;;;;;;;27.68;34.93;98410.78;5007721;28;20482;-80
2023/09/05 09:53:34;;;;;;;1.80;1.70;;;;;;;27.71;35.41;98415.72;5009658;28;20534;-80
2023/09/05 09:56:03;;;;;;;1.97;1.87;;;;;;;27.98;35.73;98415.78;5011792;28;20483;-79
2023/09/05 09:58:31;;;;;;;2.30;2.07;;;;;;;27.98;34.88;98412.19;5010604;28;20857;-79
2023/09/05 10:01:00;;;;;;;1.83;1.73;;;;;;;28.57;33.54;98407.75;5010183;28;20779;-80
2023/09/05 10:03:27;;;;;;;3.20;2.07;;;;;;;28.44;33.56;98403.81;5008956;28;20849;-80
2023/09/05 10:05:57;;;;;;;1.90;1.80;;;;;;;28.16;33.79;98404.91;5011028;28;20461;-79
2023/09/05 10:08:25;;;;;;;1.70;1.60;;;;;;;28.27;34.18;98406.38;5008103;28;20964;-79
2023/09/05 10:10:54;;;;;;;2.50;2.30;;;;;;;28.76;33.80;98395.31;5007635;28;20457;-79
2023/09/05 10:13:26;;;;;;;2.10;2.00;;;;;;;29.47;32.35;98404.06;5010061;28;20911;-80
2023/09/05 10:15:56;;;;;;;2.30;1.87;;;;;;;28.87;32.53;98401.53;5011491;28;20571;-80
2023/09/05 10:18:23;;;;;;;1.80;1.67;;;;;;;28.67;32.42;98404.72;5009926;28;21166;-79
2023/09/05 10:20:52;;;;;;;2.27;2.07;;;;;;;28.28;32.96;98399.66;5010576;28;20457;-80
2023/09/05 10:23:19;;;;;;;2.10;2.00;;;;;;;28.82;32.63;98390.50;5005836;28;21110;-80
2023/09/05 10:25:47;;;;;;;3.23;2.00;;;;;;;29.45;32.83;98391.56;5010362;28;20817;-80
2023/09/05 10:28:14;;;;;;;2.60;1.60;;;;;;;29.37;31.72;98393.94;5009191;28;20460;-80
2023/09/05 10:30:43;;;;;;;2.13;1.93;;;;;;;29.15;31.96;98395.88;5010636;28;20449;-79
2023/09/05 10:33:13;;;;;;;1.70;1.60;;;;;;;29.21;33.02;98394.63;5009049;28;21073;-80
2023/09/05 10:35:44;;;;;;;3.20;1.77;;;;;;;30.01;31.43;98394.56;5007837;28;20493;-81
2023/09/05 10:38:12;;;;;;;2.13;1.90;;;;;;;30.30;31.18;98398.81;5008941;28;20539;-81
2023/09/05 10:40:40;;;;;;;1.83;1.60;;;;;;;30.13;31.23;98398.75;5007695;28;20485;-80
2023/09/05 10:43:08;;;;;;;2.43;2.23;;;;;;;28.92;32.11;98390.25;5009276;28;20566;-79
2023/09/05 10:45:36;;;;;;;1.80;1.70;;;;;;;28.85;32.67;98394.63;5009751;28;20504;-80
2023/09/05 10:48:06;;;;;;;1.80;1.57;;;;;;;28.71;31.93;98391.81;5011382;28;20459;-80
2023/09/05 10:51:04;;;;;;;2.17;1.97;;;;;;;28.65;32.94;98377.16;5009313;28;20862;-79
2023/09/05 10:53:31;;;;;;;1.73;1.63;;;;;;;29.37;32.17;98377.19;5008489;28;20516;-80
2023/09/05 10:55:58;;;;;;;1.73;1.63;;;;;;;30.02;31.88;98373.88;5010745;28;20479;-80
2023/09/05 10:58:42;;;;;;;1.70;1.60;;;;;;;30.51;30.66;98373.91;5006677;28;20502;-80
2023/09/05 11:01:45;;;;;;;1.67;1.57;;;;;;;30.85;31.69;98371.22;5008126;28;20461;-80
2023/09/05 11:04:30;;;;;;;1.90;1.80;;;;;;;30.66;30.01;98371.50;5009945;28;20544;-81
2023/09/05 11:07:01;;;;;;;1.60;1.50;;;;;;;31.22;29.97;98369.78;5007851;28;20540;-80
2023/09/05 11:09:28;;;;;;;1.93;1.80;;;;;;;31.50;29.75;98369.44;5009372;28;20472;-80
2023/09/05 11:11:55;;;;;;;2.10;2.00;;;;;;;31.75;29.95;98363.00;5010577;28;20884;-80
2023/09/05 11:14:32;;;;;;;1.60;1.50;;;;;;;31.39;29.57;98371.75;5006283;28;20496;-80
2023/09/05 11:16:59;;;;;;;2.20;1.93;;;;;;;31.61;29.37;98368.75;5006997;28;20946;-80
2023/09/05 11:19:35;;;;;;;1.73;1.63;;;;;;;31.58;28.91;98371.38;5010144;28;20488;-80
2023/09/05 11:22:11;;;;;;;3.10;1.93;;;;;;;31.93;28.80;98370.19;5010058;28;20920;-80
2023/09/05 11:24:45;;;;;;;2.13;1.70;;;;;;;31.46;29.09;98374.06;5009610;28;20567;-80
2023/09/05 11:27:11;;;;;;;1.77;1.67;;;;;;;31.28;29.97;98379.66;5010529;28;20821;-80
2023/09/05 11:29:39;;;;;;;1.63;1.53;;;;;;;30.94;28.94;98376.81;5007595;28;20492;-80
2023/09/05 11:32:06;;;;;;;2.13;1.70;;;;;;;31.21;30.44;98367.31;5004400;28;20473;-80
2023/09/05 11:34:33;;;;;;;1.63;1.53;;;;;;;31.35;29.00;98360.41;4995792;28;21075;-74
2023/09/05 11:37:00;;;;;;;1.80;1.70;;;;;;;30.92;28.95;98365.13;4992007;28;20510;-79
2023/09/05 11:39:29;;;;;;;2.20;1.70;;;;;;;30.11;30.50;98368.34;5002212;28;20485;-74